Time;durP1;ratioP1;P1;durP2;ratioP2;P2;SDS_P1;SDS_P2;PMS_P1;PMS_P2;Temp;Humidity;BMP_temperature;BMP_pressure;BME280_temperature;BME280_humidity;BME280_pressure;Samples;Min_cycle;Max_cycle;Signal;HPM_P1;HPM_P2
2021/08/28 00:01:40;;;;;;;10.27;4.90;;;;;;;10.47;100.00;93851.41;5055046;28;20239;-79
2021/08/28 00:04:08;;;;;;;11.50;4.93;;;;;;;10.49;100.00;93851.22;5055010;28;20204;-79
2021/08/28 00:06:34;;;;;;;9.73;4.63;;;;;;;10.50;100.00;93853.63;5054951;28;20210;-81
2021/08/28 00:09:01;;;;;;;6.47;3.97;;;;;;;10.49;100.00;93849.44;5054590;28;20257;-83
2021/08/28 00:11:29;;;;;;;10.90;5.20;;;;;;;10.54;100.00;93851.41;5054895;28;20717;-80
2021/08/28 00:13:57;;;;;;;10.27;4.80;;;;;;;10.54;100.00;93848.81;5054881;28;20259;-81
2021/08/28 00:16:27;;;;;;;12.23;4.53;;;;;;;10.45;100.00;93852.63;5054760;28;20206;-80
2021/08/28 00:18:53;;;;;;;7.17;4.37;;;;;;;10.36;100.00;93847.59;5054588;28;20323;-79
2021/08/28 00:21:23;;;;;;;7.50;3.93;;;;;;;10.36;100.00;93852.81;5054243;28;20594;-83
2021/08/28 00:23:54;;;;;;;6.47;4.00;;;;;;;10.36;100.00;93852.81;5054874;28;20206;-80
2021/08/28 00:26:23;;;;;;;8.40;4.03;;;;;;;10.43;100.00;93849.41;5054661;28;20207;-79
2021/08/28 00:28:49;;;;;;;8.67;4.10;;;;;;;10.51;100.00;93850.03;5054643;28;20242;-81
2021/08/28 00:31:20;;;;;;;7.47;3.97;;;;;;;10.58;100.00;93852.66;5054430;28;20211;-82
2021/08/28 00:33:46;;;;;;;9.23;4.63;;;;;;;10.59;100.00;93850.84;5054407;28;20673;-81
2021/08/28 00:36:14;;;;;;;8.40;3.70;;;;;;;10.62;100.00;93851.22;5054124;28;20294;-81
2021/08/28 00:38:41;;;;;;;7.97;3.87;;;;;;;10.68;100.00;93847.84;5054204;28;20227;-81
2021/08/28 00:41:07;;;;;;;6.20;4.03;;;;;;;10.73;100.00;93848.03;5054376;28;20203;-81
2021/08/28 00:43:36;;;;;;;7.43;3.53;;;;;;;10.78;100.00;93846.66;5054294;28;20649;-81
2021/08/28 00:46:02;;;;;;;8.83;3.37;;;;;;;10.80;100.00;93839.41;5054042;28;20238;-82
2021/08/28 00:48:31;;;;;;;6.13;3.03;;;;;;;10.83;100.00;93841.63;5054022;28;20199;-81
2021/08/28 00:50:58;;;;;;;6.80;3.33;;;;;;;10.83;100.00;93845.03;5054204;28;20210;-81
2021/08/28 00:53:24;;;;;;;9.13;3.83;;;;;;;10.78;100.00;93842.22;5054079;28;20597;-81
2021/08/28 00:55:52;;;;;;;10.43;3.30;;;;;;;10.76;100.00;93844.25;5054103;28;20214;-81
2021/08/28 00:58:21;;;;;;;7.57;3.27;;;;;;;10.71;100.00;93847.44;5053698;28;20231;-80
2021/08/28 01:00:51;;;;;;;8.40;3.40;;;;;;;10.63;100.00;93836.41;5053784;28;20204;-80
2021/08/28 01:03:23;;;;;;;3.80;2.83;;;;;;;10.58;100.00;93836.97;5053661;28;20294;-81
2021/08/28 01:05:56;;;;;;;10.07;3.60;;;;;;;10.51;100.00;93836.19;5053614;28;20510;-82
2021/08/28 01:08:28;;;;;;;6.63;3.33;;;;;;;10.45;100.00;93834.34;5053766;28;20242;-80
2021/08/28 01:11:04;;;;;;;5.17;2.97;;;;;;;10.41;100.00;93838.34;5053338;28;20215;-81
2021/08/28 01:13:33;;;;;;;5.20;3.27;;;;;;;10.37;100.00;93837.94;5053716;28;20241;-80
2021/08/28 01:16:02;;;;;;;5.80;3.47;;;;;;;10.38;100.00;93830.94;5053469;28;20613;-80
2021/08/28 01:18:29;;;;;;;4.67;3.53;;;;;;;10.38;100.00;93830.94;5053518;28;20226;-80
2021/08/28 01:21:04;;;;;;;7.27;3.80;;;;;;;10.43;100.00;93833.75;5053445;28;20200;-80
2021/08/28 01:23:34;;;;;;;5.03;3.20;;;;;;;10.48;100.00;93841.78;5053337;28;20203;-80
2021/08/28 01:26:06;;;;;;;6.23;3.30;;;;;;;10.51;100.00;93838.78;5052702;28;20244;-81
2021/08/28 01:28:35;;;;;;;8.17;3.77;;;;;;;10.52;100.00;93838.59;5053446;28;20294;-80
2021/08/28 01:31:03;;;;;;;5.60;3.47;;;;;;;10.56;100.00;93839.00;5053193;28;20294;-81
2021/08/28 01:33:30;;;;;;;6.47;3.47;;;;;;;10.58;100.00;93829.16;5053494;28;20205;-80
2021/08/28 01:35:57;;;;;;;7.97;3.50;;;;;;;10.64;100.00;93841.41;5053332;28;20570;-80
2021/08/28 01:38:24;;;;;;;5.33;3.50;;;;;;;10.66;100.00;93846.44;5052613;28;20231;-80
2021/08/28 01:40:52;;;;;;;6.97;3.50;;;;;;;10.67;100.00;93846.22;5053169;28;20199;-81
2021/08/28 01:43:19;;;;;;;11.93;3.30;;;;;;;10.67;100.00;93846.22;5053246;28;20238;-80
2021/08/28 01:45:50;;;;;;;5.23;3.20;;;;;;;10.64;100.00;93833.59;5048312;28;20234;-80
2021/08/28 01:48:23;;;;;;;5.43;2.90;;;;;;;10.67;100.00;93835.78;5033283;28;20205;-80
2021/08/28 01:50:51;;;;;;;7.80;3.50;;;;;;;10.69;100.00;93833.78;5033334;28;20208;-80
2021/08/28 01:53:21;;;;;;;5.53;3.00;;;;;;;10.71;100.00;93837.00;5033307;28;20301;-80
2021/08/28 01:55:48;;;;;;;5.90;3.10;;;;;;;10.77;100.00;93839.81;5037635;28;20647;-79
2021/08/28 01:58:14;;;;;;;6.43;3.30;;;;;;;10.71;100.00;93831.78;5052712;28;20214;-80
2021/08/28 02:00:41;;;;;;;5.40;3.13;;;;;;;10.77;100.00;93832.78;5052940;28;20209;-80
2021/08/28 02:03:07;;;;;;;5.97;2.90;;;;;;;10.76;100.00;93835.59;5052726;28;20210;-80
2021/08/28 02:05:40;;;;;;;14.03;3.70;;;;;;;10.73;100.00;93832.38;5052818;28;20210;-81
2021/08/28 02:08:12;;;;;;;5.57;3.00;;;;;;;10.81;100.00;93841.84;5052927;28;20234;-81
2021/08/28 02:10:51;;;;;;;8.23;3.43;;;;;;;10.76;100.00;93846.03;5052987;28;20199;-79
2021/08/28 02:13:25;;;;;;;8.40;3.10;;;;;;;10.73;100.00;93840.22;5052921;28;20294;-81
2021/08/28 02:15:59;;;;;;;5.90;3.23;;;;;;;10.76;100.00;93836.41;5052688;28;20204;-81
2021/08/28 02:18:38;;;;;;;10.50;3.50;;;;;;;10.79;100.00;93835.19;5053037;28;20209;-81
2021/08/28 02:21:26;;;;;;;7.53;3.23;;;;;;;10.76;100.00;93831.19;5052990;28;20199;-81
2021/08/28 02:24:00;;;;;;;5.60;2.77;;;;;;;10.77;100.00;93829.38;5056961;28;20677;-80
2021/08/28 02:26:36;;;;;;;5.67;3.37;;;;;;;10.78;100.00;93831.78;5056653;28;20203;-81
2021/08/28 02:29:10;;;;;;;7.27;3.80;;;;;;;10.80;100.00;93821.13;5056913;28;20199;-80
2021/08/28 02:31:41;;;;;;;9.37;3.67;;;;;;;10.79;100.00;93830.78;5056718;28;20203;-81
2021/08/28 02:34:09;;;;;;;8.13;3.07;;;;;;;10.82;100.00;93821.72;5056710;28;20196;-80
2021/08/28 02:36:41;;;;;;;6.67;3.50;;;;;;;10.85;100.00;93816.13;5055824;28;20444;-81
2021/08/28 02:39:10;;;;;;;9.23;3.53;;;;;;;10.81;100.00;93822.72;5056644;28;20841;-81
2021/08/28 02:41:38;;;;;;;4.53;2.73;;;;;;;10.82;100.00;93821.72;5056637;28;20227;-80
2021/08/28 02:44:09;;;;;;;6.33;3.70;;;;;;;10.82;100.00;93832.19;5056594;28;20200;-81
2021/08/28 02:46:37;;;;;;;11.37;3.90;;;;;;;10.84;100.00;93830.16;5056327;28;20237;-82
2021/08/28 02:49:07;;;;;;;6.57;3.57;;;;;;;10.82;100.00;93824.34;5056239;28;20667;-80
2021/08/28 02:51:38;;;;;;;8.33;3.50;;;;;;;10.83;100.00;93820.75;5056293;28;20214;-80
2021/08/28 02:54:08;;;;;;;7.20;3.50;;;;;;;10.87;100.00;93819.31;5056185;28;20217;-79
2021/08/28 02:56:35;;;;;;;6.57;3.83;;;;;;;10.88;100.00;93815.72;5056391;28;20195;-80
2021/08/28 02:59:06;;;;;;;9.10;3.63;;;;;;;10.86;100.00;93818.53;5056188;28;20227;-81
2021/08/28 03:01:35;;;;;;;6.50;3.40;;;;;;;10.89;100.00;93817.31;5056232;28;20206;-81
2021/08/28 03:04:01;;;;;;;6.43;3.77;;;;;;;10.92;100.00;93816.91;5056059;28;20204;-80
2021/08/28 03:06:31;;;;;;;6.57;3.53;;;;;;;10.92;100.00;93820.34;5055913;28;20211;-81
2021/08/28 03:08:59;;;;;;;6.27;3.63;;;;;;;10.90;100.00;93819.72;5056020;28;20195;-80
2021/08/28 03:11:26;;;;;;;9.03;3.40;;;;;;;10.90;100.00;93824.16;5056165;28;20199;-81
2021/08/28 03:13:53;;;;;;;9.80;3.37;;;;;;;10.90;100.00;93832.78;5055993;28;20662;-81
2021/08/28 03:16:25;;;;;;;6.80;3.30;;;;;;;10.90;100.00;93821.53;5055925;28;20204;-80
2021/08/28 03:18:57;;;;;;;9.53;3.90;;;;;;;10.89;100.00;93827.75;5056489;28;20674;-82
2021/08/28 03:21:26;;;;;;;7.37;3.50;;;;;;;10.89;100.00;93827.75;5057057;28;20693;-80
2021/08/28 03:23:54;;;;;;;4.83;3.47;;;;;;;10.93;100.00;93824.53;5057429;28;20204;-81
2021/08/28 03:26:24;;;;;;;7.20;3.63;;;;;;;10.92;100.00;93819.53;5056966;28;20199;-79
2021/08/28 03:28:53;;;;;;;5.93;3.70;;;;;;;10.92;100.00;93815.13;5055660;28;20195;-80
2021/08/28 03:31:23;;;;;;;6.37;3.60;;;;;;;10.91;100.00;93823.16;5055902;28;20381;-81
2021/08/28 03:33:50;;;;;;;14.73;4.50;;;;;;;10.89;100.00;93818.13;5055495;28;20218;-79
2021/08/28 03:36:17;;;;;;;7.47;3.50;;;;;;;10.90;100.00;93822.34;5055348;28;20214;-79
2021/08/28 03:38:45;;;;;;;8.20;3.30;;;;;;;10.84;100.00;93817.09;5055366;28;20239;-80
2021/08/28 03:41:11;;;;;;;7.77;3.50;;;;;;;10.79;100.00;93819.53;5055326;28;20207;-80
2021/08/28 03:43:42;;;;;;;8.00;3.57;;;;;;;10.80;100.00;93813.31;5055141;28;20210;-80
2021/08/28 03:46:09;;;;;;;8.47;3.90;;;;;;;10.79;100.00;93817.72;5055190;28;20227;-81
2021/08/28 03:48:38;;;;;;;7.83;3.40;;;;;;;10.80;100.00;93814.09;5055190;28;20290;-81
2021/08/28 03:51:04;;;;;;;4.70;3.10;;;;;;;10.91;100.00;93813.50;5055222;28;20207;-80
2021/08/28 03:53:31;;;;;;;4.43;3.20;;;;;;;10.87;100.00;93816.72;5055098;28;20215;-80
2021/08/28 03:55:57;;;;;;;7.37;3.63;;;;;;;10.84;100.00;93819.72;5054847;28;20196;-80
2021/08/28 03:58:24;;;;;;;5.03;2.93;;;;;;;10.84;100.00;93814.50;5054942;28;20207;-81
2021/08/28 04:00:52;;;;;;;7.70;3.67;;;;;;;10.83;100.00;93811.09;5054655;28;20606;-80
2021/08/28 04:03:20;;;;;;;4.33;3.10;;;;;;;10.79;100.00;93811.69;5054914;28;20669;-80
2021/08/28 04:05:47;;;;;;;10.30;3.53;;;;;;;10.74;100.00;93807.88;5054784;28;20685;-81
2021/08/28 04:08:13;;;;;;;8.90;3.90;;;;;;;10.78;100.00;93812.72;5053842;28;20440;-81
2021/08/28 04:10:41;;;;;;;10.70;3.57;;;;;;;10.74;100.00;93810.50;5054703;28;20205;-81
2021/08/28 04:13:08;;;;;;;7.13;2.87;;;;;;;10.78;100.00;93815.31;5054856;28;20203;-81
2021/08/28 04:15:34;;;;;;;6.73;2.60;;;;;;;10.80;100.00;93810.69;5054559;28;20562;-81
2021/08/28 04:18:03;;;;;;;6.23;3.10;;;;;;;10.75;100.00;93811.28;5054753;28;20621;-81
2021/08/28 04:20:29;;;;;;;5.83;3.23;;;;;;;10.77;100.00;93808.47;5054576;28;20227;-80
2021/08/28 04:22:56;;;;;;;13.20;3.37;;;;;;;10.79;100.00;93811.69;5054515;28;20199;-81
2021/08/28 04:25:24;;;;;;;11.03;3.60;;;;;;;10.77;100.00;93809.28;5054602;28;20206;-81
2021/08/28 04:27:51;;;;;;;8.20;3.00;;;;;;;10.77;100.00;93813.69;5054544;28;20199;-81
2021/08/28 04:30:17;;;;;;;8.97;3.20;;;;;;;10.75;100.00;93813.91;5054338;28;20654;-81
2021/08/28 04:32:44;;;;;;;5.50;3.07;;;;;;;10.86;100.00;93807.28;5054424;28;20217;-81
2021/08/28 04:35:12;;;;;;;6.50;3.00;;;;;;;10.87;100.00;93806.25;5054360;28;20202;-81
2021/08/28 04:37:38;;;;;;;8.03;2.90;;;;;;;10.76;100.00;93812.09;5054285;28;20207;-81
2021/08/28 04:40:06;;;;;;;5.90;3.27;;;;;;;10.79;100.00;93816.91;5054194;28;20711;-81
2021/08/28 04:42:32;;;;;;;6.43;2.87;;;;;;;10.77;100.00;93818.94;5054342;28;20199;-81
2021/08/28 04:44:59;;;;;;;6.33;3.63;;;;;;;10.71;100.00;93821.34;5053696;28;20207;-81
2021/08/28 04:47:25;;;;;;;10.03;3.67;;;;;;;10.72;100.00;93825.56;5053925;28;20235;-81
2021/08/28 04:49:52;;;;;;;6.80;3.77;;;;;;;10.72;100.00;93833.41;5053978;28;20203;-80
2021/08/28 04:52:19;;;;;;;9.87;4.00;;;;;;;10.78;100.00;93826.56;5053859;28;20207;-81
2021/08/28 04:54:46;;;;;;;7.78;4.00;;;;;;;10.78;100.00;93829.16;5053490;28;20443;-81
2021/08/28 04:57:12;;;;;;;10.53;3.90;;;;;;;10.73;100.00;93827.16;5053854;28;20666;-80
2021/08/28 04:59:39;;;;;;;7.20;3.47;;;;;;;10.76;100.00;93830.34;5053800;28;20246;-81
2021/08/28 05:02:05;;;;;;;9.47;3.70;;;;;;;10.73;100.00;93827.16;5053836;28;20205;-81
2021/08/28 05:04:32;;;;;;;4.63;3.27;;;;;;;10.82;100.00;93837.41;5053770;28;20203;-80
2021/08/28 05:06:59;;;;;;;11.20;3.57;;;;;;;10.85;100.00;93837.00;5053596;28;20626;-80
2021/08/28 05:09:26;;;;;;;5.77;3.67;;;;;;;10.82;100.00;93840.81;5054166;28;20651;-81
2021/08/28 05:11:53;;;;;;;8.20;3.80;;;;;;;10.83;100.00;93842.44;5054970;28;20207;-80
2021/08/28 05:14:20;;;;;;;8.93;3.90;;;;;;;10.88;100.00;93836.63;5054644;28;20668;-80
2021/08/28 05:16:46;;;;;;;7.07;3.57;;;;;;;10.88;100.00;93840.03;5055039;28;20199;-80
2021/08/28 05:19:13;;;;;;;7.20;3.47;;;;;;;10.85;100.00;93844.84;5053965;28;20598;-81
2021/08/28 05:21:39;;;;;;;9.40;4.03;;;;;;;10.92;100.00;93835.19;5054023;28;20203;-81
2021/08/28 05:24:06;;;;;;;5.07;3.20;;;;;;;10.96;100.00;93841.63;5053535;28;20200;-80
2021/08/28 05:26:34;;;;;;;8.77;3.37;;;;;;;10.81;100.00;93852.28;5053332;28;20200;-80
2021/08/28 05:29:00;;;;;;;8.20;4.30;;;;;;;10.76;100.00;93841.63;5053372;28;20200;-80
2021/08/28 05:31:27;;;;;;;8.60;4.00;;;;;;;10.69;100.00;93843.41;5053251;28;20207;-81
2021/08/28 05:33:53;;;;;;;10.67;4.70;;;;;;;10.70;100.00;93837.19;5053145;28;20204;-79
2021/08/28 05:36:20;;;;;;;6.93;4.67;;;;;;;10.67;100.00;93843.59;5053414;28;20202;-80
2021/08/28 05:38:46;;;;;;;10.70;5.83;;;;;;;10.64;100.00;93846.66;5053186;28;20196;-80
2021/08/28 05:41:13;;;;;;;9.77;5.30;;;;;;;10.62;100.00;93843.41;5053143;28;20234;-81
2021/08/28 05:43:40;;;;;;;11.47;5.60;;;;;;;10.66;100.00;93836.78;5053118;28;20199;-80
2021/08/28 05:46:07;;;;;;;13.03;5.50;;;;;;;10.76;100.00;93843.41;5052866;28;20235;-81
2021/08/28 05:48:33;;;;;;;10.83;5.13;;;;;;;10.68;100.00;93836.59;5052808;28;20202;-81
2021/08/28 05:51:00;;;;;;;9.80;5.87;;;;;;;10.72;100.00;93835.19;5053076;28;20203;-80
2021/08/28 05:53:26;;;;;;;10.37;5.87;;;;;;;10.76;100.00;93833.78;5053042;28;20210;-81
2021/08/28 05:55:53;;;;;;;10.27;6.20;;;;;;;10.84;100.00;93830.16;5052033;28;20745;-82
2021/08/28 05:58:19;;;;;;;10.50;5.73;;;;;;;10.87;100.00;93838.41;5052791;28;20199;-79
2021/08/28 06:00:47;;;;;;;10.23;5.50;;;;;;;10.99;100.00;93829.97;5052807;28;20238;-83
2021/08/28 06:03:14;;;;;;;14.97;6.20;;;;;;;11.06;100.00;93831.59;5052666;28;20210;-82
2021/08/28 06:05:40;;;;;;;10.33;5.27;;;;;;;10.99;100.00;93837.81;5052837;28;20210;-81
2021/08/28 06:08:09;;;;;;;11.13;5.80;;;;;;;11.00;100.00;93839.44;5052846;28;20286;-80
2021/08/28 06:10:35;;;;;;;9.17;5.13;;;;;;;10.98;100.00;93837.00;5052895;28;20211;-81
2021/08/28 06:13:02;;;;;;;7.50;5.10;;;;;;;10.93;100.00;93835.00;5052688;28;20203;-81
2021/08/28 06:15:28;;;;;;;9.47;5.17;;;;;;;10.94;100.00;93841.00;5052641;28;20195;-82
2021/08/28 06:17:56;;;;;;;9.53;5.40;;;;;;;10.86;100.00;93836.81;5052604;28;20700;-81
2021/08/28 06:20:23;;;;;;;11.20;6.07;;;;;;;10.83;100.00;93844.25;5052777;28;20234;-81
2021/08/28 06:22:49;;;;;;;10.17;6.80;;;;;;;10.81;100.00;93846.22;5052803;28;20558;-81
2021/08/28 06:25:16;;;;;;;13.33;5.87;;;;;;;11.01;100.00;93844.44;5052691;28;20195;-80
2021/08/28 06:27:43;;;;;;;10.70;6.00;;;;;;;10.93;100.00;93842.03;5052537;28;20199;-80
2021/08/28 06:30:10;;;;;;;10.03;5.43;;;;;;;10.88;100.00;93842.63;5052377;28;20199;-80
2021/08/28 06:32:36;;;;;;;11.77;5.73;;;;;;;10.97;100.00;93840.63;5052608;28;20200;-80
2021/08/28 06:35:05;;;;;;;8.43;5.50;;;;;;;10.97;100.00;93840.63;5052481;28;20290;-81
2021/08/28 06:37:31;;;;;;;9.83;5.43;;;;;;;10.88;100.00;93844.44;5052581;28;20221;-80
2021/08/28 06:39:58;;;;;;;18.93;6.07;;;;;;;10.88;100.00;93852.28;5052538;28;20223;-81
2021/08/28 06:42:24;;;;;;;13.50;5.93;;;;;;;10.90;100.00;93840.63;5052498;28;20203;-80
2021/08/28 06:44:51;;;;;;;11.93;6.70;;;;;;;10.94;100.00;93843.63;5052343;28;20207;-80
2021/08/28 06:47:17;;;;;;;12.10;6.50;;;;;;;10.87;100.00;93850.66;5052303;28;20228;-81
2021/08/28 06:49:44;;;;;;;15.23;6.50;;;;;;;10.86;100.00;93838.63;5052487;28;20211;-81
2021/08/28 06:52:12;;;;;;;12.40;6.17;;;;;;;10.83;100.00;93849.47;5052455;28;20207;-81
2021/08/28 06:54:38;;;;;;;10.10;6.00;;;;;;;10.87;100.00;93861.13;5052423;28;20200;-80
2021/08/28 06:57:05;;;;;;;12.43;7.77;;;;;;;10.82;100.00;93853.06;5052312;28;20210;-80
2021/08/28 06:59:31;;;;;;;11.93;6.67;;;;;;;10.83;100.00;93854.69;5052165;28;20662;-80
2021/08/28 07:01:58;;;;;;;10.73;7.40;;;;;;;10.92;100.00;93848.25;5052287;28;20238;-81
2021/08/28 07:04:24;;;;;;;15.00;7.80;;;;;;;10.96;100.00;93859.94;5052337;28;20544;-81
2021/08/28 07:06:52;;;;;;;15.40;7.37;;;;;;;10.89;100.00;93853.88;5052300;28;20210;-81
2021/08/28 07:09:19;;;;;;;13.30;7.30;;;;;;;10.88;100.00;93855.69;5055767;28;20278;-78
2021/08/28 07:11:46;;;;;;;12.50;7.10;;;;;;;10.97;100.00;93851.06;5055351;28;20195;-80
2021/08/28 07:14:13;;;;;;;9.97;6.90;;;;;;;11.01;100.00;93854.91;5056030;28;20203;-80
2021/08/28 07:16:39;;;;;;;10.60;6.43;;;;;;;10.98;100.00;93852.69;5055950;28;20221;-80
2021/08/28 07:19:05;;;;;;;11.83;7.07;;;;;;;11.11;100.00;93855.28;5055848;28;20207;-79
2021/08/28 07:21:32;;;;;;;13.93;7.28;;;;;;;11.30;100.00;93851.06;5055747;28;20223;-80
2021/08/28 07:23:58;;;;;;;8.30;6.30;;;;;;;11.47;100.00;93854.06;5055693;28;20200;-80
2021/08/28 07:26:26;;;;;;;9.33;5.70;;;;;;;11.81;100.00;93852.16;5055676;28;20235;-80
2021/08/28 07:28:53;;;;;;;8.47;4.97;;;;;;;11.54;100.00;93843.59;5055769;28;20227;-79
2021/08/28 07:31:20;;;;;;;9.13;6.03;;;;;;;11.64;100.00;93848.38;5055522;28;20683;-80
2021/08/28 07:33:46;;;;;;;7.47;5.67;;;;;;;11.49;100.00;93861.72;5055547;28;20195;-78
2021/08/28 07:36:13;;;;;;;10.57;6.33;;;;;;;11.61;100.00;93846.19;5055349;28;20199;-81
2021/08/28 07:38:39;;;;;;;11.30;6.03;;;;;;;11.73;100.00;93848.97;5055287;28;20200;-79
2021/08/28 07:41:06;;;;;;;9.17;6.10;;;;;;;11.71;100.00;93848.34;5055166;28;20564;-80
2021/08/28 07:43:33;;;;;;;12.47;7.13;;;;;;;11.57;100.00;93853.63;5055423;28;20203;-78
2021/08/28 07:46:00;;;;;;;13.53;6.17;;;;;;;11.96;100.00;93848.53;5055340;28;20232;-78
2021/08/28 07:48:27;;;;;;;9.60;5.90;;;;;;;11.91;100.00;93845.72;5055645;28;20199;-81
2021/08/28 07:50:53;;;;;;;11.80;5.87;;;;;;;11.79;100.00;93854.19;5055157;28;20203;-79
2021/08/28 07:53:20;;;;;;;7.90;5.75;;;;;;;11.91;100.00;93848.31;5055167;28;20208;-79
2021/08/28 07:55:46;;;;;;;10.97;6.50;;;;;;;11.73;100.00;93855.00;5055054;28;20195;-81
2021/08/28 07:58:13;;;;;;;12.07;6.20;;;;;;;11.82;100.00;93851.16;5055173;28;20195;-81
2021/08/28 08:00:41;;;;;;;9.80;6.33;;;;;;;11.76;100.00;93849.38;5055054;28;20229;-80
2021/08/28 08:03:07;;;;;;;9.20;5.77;;;;;;;11.61;100.00;93851.44;5055092;28;20298;-80
2021/08/28 08:05:34;;;;;;;10.63;6.20;;;;;;;11.79;100.00;93856.81;5054998;28;20203;-81
2021/08/28 08:08:01;;;;;;;10.47;6.13;;;;;;;11.79;100.00;93856.81;5054861;28;20203;-79
2021/08/28 08:10:27;;;;;;;10.33;6.10;;;;;;;11.78;100.00;93857.00;5055148;28;20207;-81
2021/08/28 08:12:54;;;;;;;11.17;6.00;;;;;;;11.83;100.00;93855.38;5054837;28;20654;-80
2021/08/28 08:15:23;;;;;;;9.23;5.67;;;;;;;11.91;100.00;93856.19;5054967;28;20207;-81
2021/08/28 08:17:54;;;;;;;8.73;6.10;;;;;;;11.89;100.00;93851.16;5054801;28;20535;-81
2021/08/28 08:20:21;;;;;;;8.50;5.50;;;;;;;11.95;100.00;93855.56;5053630;28;20555;-80
2021/08/28 08:22:49;;;;;;;7.60;5.05;;;;;;;11.86;100.00;93854.19;5054640;28;20600;-81
2021/08/28 08:25:15;;;;;;;10.73;5.27;;;;;;;12.08;100.00;93861.78;5052400;28;20260;-80
2021/08/28 08:27:42;;;;;;;8.80;4.87;;;;;;;12.14;100.00;93853.06;5054195;28;20290;-83
2021/08/28 08:30:09;;;;;;;9.93;4.72;;;;;;;12.44;100.00;93857.78;5054547;28;20210;-81
2021/08/28 08:32:35;;;;;;;7.22;4.28;;;;;;;12.90;100.00;93860.09;5054971;28;20195;-83
2021/08/28 08:35:04;;;;;;;7.30;4.63;;;;;;;13.23;100.00;93860.88;5054717;28;20203;-83
2021/08/28 08:37:30;;;;;;;6.95;4.20;;;;;;;13.09;100.00;93857.53;5054626;28;20605;-81
2021/08/28 08:39:57;;;;;;;5.78;4.47;;;;;;;13.28;100.00;93861.03;5054606;28;20398;-82
2021/08/28 08:42:25;;;;;;;7.00;4.43;;;;;;;13.65;100.00;93864.53;5055184;28;20227;-82
2021/08/28 08:44:53;;;;;;;6.72;4.50;;;;;;;13.90;100.00;93865.53;5054830;28;20203;-82
2021/08/28 08:47:20;;;;;;;6.90;3.90;;;;;;;14.49;100.00;93855.31;5054639;28;20325;-82
2021/08/28 08:49:49;;;;;;;5.53;3.67;;;;;;;14.67;100.00;93857.97;5054018;28;20204;-82
2021/08/28 08:52:20;;;;;;;5.93;3.72;;;;;;;15.03;100.00;93865.94;5054689;28;20283;-82
2021/08/28 08:54:48;;;;;;;5.70;3.33;;;;;;;14.96;100.00;93856.31;5055298;28;20203;-83
2021/08/28 08:57:15;;;;;;;4.45;3.17;;;;;;;14.94;100.00;93866.25;5054193;28;20203;-82
2021/08/28 08:59:41;;;;;;;4.47;3.35;;;;;;;14.48;100.00;93856.38;5054483;28;20202;-82
2021/08/28 09:02:08;;;;;;;5.28;3.63;;;;;;;13.81;100.00;93859.78;5054161;28;20242;-82
2021/08/28 09:04:35;;;;;;;4.63;3.22;;;;;;;13.67;100.00;93865.16;5054196;28;20207;-82
2021/08/28 09:07:01;;;;;;;5.38;3.33;;;;;;;13.38;100.00;93863.22;5054224;28;20199;-82
2021/08/28 09:09:29;;;;;;;4.60;3.58;;;;;;;13.18;100.00;93872.00;5054172;28;20222;-82
2021/08/28 09:12:01;;;;;;;6.78;4.45;;;;;;;12.89;100.00;93863.75;5053916;28;20646;-82
2021/08/28 09:14:28;;;;;;;6.43;4.30;;;;;;;12.84;100.00;93871.44;5053799;28;20207;-82
2021/08/28 09:16:55;;;;;;;7.00;4.82;;;;;;;12.76;100.00;93866.47;5053674;28;20206;-82
2021/08/28 09:19:36;;;;;;;8.00;5.13;;;;;;;12.69;100.00;93873.53;5053763;28;20203;-82
2021/08/28 09:22:06;;;;;;;6.20;4.70;;;;;;;13.07;100.00;93864.81;5053425;28;20223;-83
2021/08/28 09:24:46;;;;;;;7.68;4.68;;;;;;;13.30;100.00;93874.72;5053743;28;20199;-82
2021/08/28 09:27:31;;;;;;;9.57;5.47;;;;;;;13.35;100.00;93868.88;5053656;28;20642;-81
2021/08/28 09:29:57;;;;;;;7.60;4.88;;;;;;;13.48;100.00;93876.63;5053779;28;20512;-81
2021/08/28 09:32:26;;;;;;;6.43;4.18;;;;;;;13.53;100.00;93871.53;5053034;28;20199;-80
2021/08/28 09:34:55;;;;;;;6.93;4.18;;;;;;;13.70;100.00;93871.78;5053652;28;20203;-82
2021/08/28 09:37:30;;;;;;;6.72;3.92;;;;;;;14.00;100.00;93869.22;5053500;28;20253;-81
2021/08/28 09:40:05;;;;;;;6.80;3.78;;;;;;;14.47;100.00;93878.38;5053540;28;20527;-81
2021/08/28 09:42:32;;;;;;;5.22;3.42;;;;;;;14.51;100.00;93874.31;5053325;28;20227;-82
2021/08/28 09:45:09;;;;;;;6.57;3.85;;;;;;;15.29;100.00;93876.03;5053195;28;20210;-81
2021/08/28 09:47:36;;;;;;;5.57;3.10;;;;;;;15.10;100.00;93871.88;5053210;28;20200;-82
2021/08/28 09:50:09;;;;;;;5.10;3.47;;;;;;;14.83;100.00;93871.47;5053182;28;20286;-84
2021/08/28 09:52:36;;;;;;;7.10;3.78;;;;;;;14.89;100.00;93874.03;5053285;28;20706;-81
2021/08/28 09:55:10;;;;;;;7.38;4.20;;;;;;;15.21;97.83;93870.31;5053079;28;20199;-82
2021/08/28 09:57:42;;;;;;;5.35;3.70;;;;;;;15.43;100.00;93870.56;5053176;28;20290;-79
2021/08/28 10:00:11;;;;;;;4.72;3.22;;;;;;;15.40;98.16;93863.91;5053045;28;20215;-80
2021/08/28 10:02:54;;;;;;;10.35;6.20;;;;;;;14.99;100.00;93861.13;5052544;28;20235;-81
2021/08/28 10:05:25;;;;;;;6.50;3.72;;;;;;;15.31;95.03;93875.81;5053020;28;20199;-81
2021/08/28 10:07:56;;;;;;;6.32;4.13;;;;;;;16.04;95.65;93860.59;5052171;28;20442;-82
2021/08/28 10:10:25;;;;;;;5.72;3.67;;;;;;;16.13;91.41;93875.00;5052888;28;20282;-81
2021/08/28 10:12:55;;;;;;;4.82;3.20;;;;;;;16.24;92.32;93861.00;5052696;28;20205;-80
2021/08/28 10:15:24;;;;;;;6.00;2.90;;;;;;;15.71;94.60;93862.78;5052762;28;20203;-81
2021/08/28 10:17:58;;;;;;;4.47;2.90;;;;;;;16.06;90.26;93861.16;5052986;28;20230;-79
2021/08/28 10:20:29;;;;;;;4.25;2.90;;;;;;;15.32;88.94;93859.81;5052787;28;20203;-80
2021/08/28 10:22:57;;;;;;;4.47;3.15;;;;;;;15.01;93.49;93857.47;5052215;28;20227;-82
2021/08/28 10:25:29;;;;;;;5.40;2.80;;;;;;;14.76;99.06;93853.97;5052661;28;20206;-80
2021/08/28 10:27:57;;;;;;;9.15;5.07;;;;;;;14.48;98.47;93853.72;5052619;28;20204;-81
2021/08/28 10:30:26;;;;;;;8.00;4.90;;;;;;;13.98;100.00;93854.75;5052627;28;20231;-81
2021/08/28 10:32:56;;;;;;;6.18;4.05;;;;;;;14.03;100.00;93855.69;5052549;28;20199;-81
2021/08/28 10:35:27;;;;;;;6.30;3.30;;;;;;;13.94;100.00;93857.00;5052726;28;20286;-80
2021/08/28 10:37:53;;;;;;;15.98;7.43;;;;;;;13.71;100.00;93864.72;5052570;28;20225;-80
2021/08/28 10:40:27;;;;;;;10.02;5.10;;;;;;;13.33;100.00;93858.59;5052310;28;20312;-80
2021/08/28 10:42:55;;;;;;;6.00;4.13;;;;;;;13.18;100.00;93861.53;5053502;28;20227;-81
2021/08/28 10:45:28;;;;;;;6.30;4.28;;;;;;;13.05;100.00;93856.38;5056423;28;20199;-80
2021/08/28 10:48:01;;;;;;;7.38;3.92;;;;;;;12.96;100.00;93864.50;5056383;28;20201;-80
2021/08/28 10:50:31;;;;;;;8.40;6.10;;;;;;;12.98;100.00;93855.63;5056121;28;20199;-81
2021/08/28 10:53:03;;;;;;;6.65;5.22;;;;;;;13.13;100.00;93863.97;5056711;28;20219;-80
2021/08/28 10:55:37;;;;;;;7.18;4.47;;;;;;;13.44;100.00;93865.78;5057562;28;20205;-80
2021/08/28 10:58:18;;;;;;;10.40;4.70;;;;;;;13.81;100.00;93863.19;5057854;28;20203;-79
2021/08/28 11:00:48;;;;;;;6.47;4.32;;;;;;;14.05;100.00;93861.53;5057101;28;20208;-79
2021/08/28 11:03:29;;;;;;;7.35;4.22;;;;;;;13.86;100.00;93862.53;5055977;28;20239;-79
2021/08/28 11:06:21;;;;;;;7.10;4.43;;;;;;;13.44;100.00;93864.94;5056196;28;20211;-80
2021/08/28 11:08:52;;;;;;;9.52;4.82;;;;;;;12.96;100.00;93863.72;5055804;28;20296;-80
2021/08/28 11:11:29;;;;;;;8.05;4.97;;;;;;;12.79;100.00;93868.66;5055363;28;20215;-80
2021/08/28 11:14:05;;;;;;;6.15;4.45;;;;;;;12.57;100.00;93860.31;5055700;28;20290;-81
2021/08/28 11:16:56;;;;;;;7.50;5.30;;;;;;;12.57;100.00;93855.09;5055791;28;20203;-80
2021/08/28 11:19:34;;;;;;;10.25;5.18;;;;;;;12.66;100.00;93858.28;5055650;28;20207;-80
2021/08/28 11:22:11;;;;;;;7.47;4.93;;;;;;;12.67;100.00;93854.63;5055051;28;20227;-81
2021/08/28 11:24:56;;;;;;;10.90;5.45;;;;;;;12.69;100.00;93857.81;5055787;28;20203;-82
2021/08/28 11:27:39;;;;;;;6.32;3.33;;;;;;;12.72;100.00;93858.22;5055693;28;20199;-80
2021/08/28 11:30:10;;;;;;;4.35;2.90;;;;;;;12.65;100.00;93867.13;5055350;28;20223;-81
2021/08/28 11:32:38;;;;;;;3.15;2.50;;;;;;;12.36;100.00;93879.78;5055304;28;20200;-78